Time;durP1;ratioP1;P1;durP2;ratioP2;P2;SDS_P1;SDS_P2;PMS_P1;PMS_P2;Temp;Humidity;BMP_temperature;BMP_pressure;BME280_temperature;BME280_humidity;BME280_pressure;Samples;Min_cycle;Max_cycle;Signal;HPM_P1;HPM_P2
2021/04/14 00:00:32;;;;;;;20.10;15.90;;;;;;;9.79;79.68;100569.61;1714317;82;21123;-72
2021/04/14 00:03:01;;;;;;;21.27;15.75;;;;;;;9.82;79.54;100569.11;1706867;82;21469;-72
2021/04/14 00:05:35;;;;;;;19.95;15.45;;;;;;;9.86;79.35;100572.08;1706523;82;21173;-71
2021/04/14 00:08:05;;;;;;;21.57;15.15;;;;;;;9.87;79.18;100573.68;1704443;82;21242;-72
2021/04/14 00:10:35;;;;;;;19.98;15.35;;;;;;;9.88;78.94;100576.65;1711268;82;21150;-70
2021/04/14 00:13:05;;;;;;;22.02;15.40;;;;;;;9.84;78.81;100576.88;1710329;82;21196;-71
2021/04/14 00:15:37;;;;;;;23.12;15.18;;;;;;;9.81;78.63;100572.84;1718834;82;21690;-73
2021/04/14 00:18:06;;;;;;;19.67;14.95;;;;;;;9.77;78.59;100576.25;1720790;82;21774;-73
2021/04/14 00:20:37;;;;;;;23.45;15.13;;;;;;;9.76;78.53;100582.64;1704710;82;21607;-72
2021/04/14 00:23:06;;;;;;;22.45;14.28;;;;;;;9.76;78.45;100575.45;1716870;82;21209;-72
2021/04/14 00:25:38;;;;;;;22.20;14.65;;;;;;;9.79;78.33;100574.14;1702963;82;21174;-73
2021/04/14 00:28:07;;;;;;;20.25;13.32;;;;;;;9.78;78.19;100573.34;1704325;82;21268;-73
2021/04/14 00:30:35;;;;;;;17.10;13.43;;;;;;;9.81;78.00;100577.38;1701775;82;21046;-73
2021/04/14 00:33:03;;;;;;;21.97;13.80;;;;;;;9.81;77.80;100575.52;1706203;80;21643;-71
2021/04/14 00:35:31;;;;;;;18.17;12.82;;;;;;;9.82;77.68;100572.31;1705593;82;21139;-70
2021/04/14 00:38:01;;;;;;;18.55;12.93;;;;;;;9.85;77.57;100571.81;1704027;82;21505;-71
2021/04/14 00:40:36;;;;;;;16.52;12.33;;;;;;;9.88;77.48;100573.18;1704691;82;21403;-71
2021/04/14 00:43:13;;;;;;;18.57;12.68;;;;;;;9.88;77.45;100567.31;1708350;82;21186;-74
2021/04/14 00:45:41;;;;;;;18.30;12.90;;;;;;;9.90;77.40;100564.38;1700198;82;21153;-72
2021/04/14 00:48:10;;;;;;;16.65;12.35;;;;;;;9.90;77.37;100558.50;1710370;80;21168;-70
2021/04/14 00:50:39;;;;;;;18.20;12.20;;;;;;;9.91;77.28;100553.47;1699567;82;21199;-70
2021/04/14 00:53:09;;;;;;;16.82;12.05;;;;;;;9.94;77.10;100558.30;1737705;80;22288;-71
2021/04/14 00:55:38;;;;;;;16.25;10.35;;;;;;;9.94;76.86;100552.16;1714593;80;21209;-72
2021/04/14 00:58:08;;;;;;;14.40;10.25;;;;;;;9.95;76.57;100557.23;1721955;81;21562;-72
2021/04/14 01:00:43;;;;;;;17.52;11.65;;;;;;;9.95;76.37;100555.91;1716979;81;21204;-72
2021/04/14 01:03:31;;;;;;;15.13;10.93;;;;;;;9.98;76.19;100558.06;1713025;81;21225;-72
2021/04/14 01:06:00;;;;;;;12.82;10.05;;;;;;;10.02;75.95;100550.36;1714319;81;21616;-71
2021/04/14 01:08:28;;;;;;;14.40;9.80;;;;;;;10.02;75.63;100556.49;1716245;81;21963;-71
2021/04/14 01:10:57;;;;;;;15.23;10.68;;;;;;;10.01;75.38;100562.90;1714983;81;21193;-71
2021/04/14 01:13:25;;;;;;;16.12;10.88;;;;;;;9.99;75.22;100561.00;1719856;81;22024;-71
2021/04/14 01:15:53;;;;;;;15.10;10.30;;;;;;;9.96;75.00;100550.83;1724989;81;21177;-73
2021/04/14 01:18:29;;;;;;;13.85;10.50;;;;;;;9.94;74.82;100554.30;1722223;81;21454;-73
2021/04/14 01:20:58;;;;;;;17.00;10.70;;;;;;;9.92;74.75;100551.06;1716618;81;21202;-70
2021/04/14 01:23:29;;;;;;;14.23;11.03;;;;;;;9.93;74.66;100547.87;1720984;82;21103;-71
2021/04/14 01:25:59;;;;;;;13.18;10.30;;;;;;;9.93;74.52;100547.87;1713432;81;21648;-72
2021/04/14 01:28:32;;;;;;;14.73;10.60;;;;;;;9.92;74.40;100544.39;1714497;82;21197;-71
2021/04/14 01:31:04;;;;;;;12.73;9.60;;;;;;;9.91;74.20;100545.47;1709325;83;21239;-72
2021/04/14 01:33:32;;;;;;;15.90;10.43;;;;;;;9.92;74.07;100552.41;1718298;82;21196;-71
2021/04/14 01:36:01;;;;;;;13.43;9.85;;;;;;;9.91;73.93;100545.47;1724405;81;21214;-70
2021/04/14 01:38:31;;;;;;;14.65;9.88;;;;;;;9.91;73.80;100545.47;1714279;81;21719;-72
2021/04/14 01:41:00;;;;;;;12.98;10.55;;;;;;;9.92;73.72;100543.06;1722205;83;21214;-72
2021/04/14 01:43:28;;;;;;;13.40;10.00;;;;;;;9.91;73.60;100546.00;1719737;82;21373;-72
2021/04/14 01:45:57;;;;;;;13.48;9.73;;;;;;;9.90;73.54;100551.84;1707156;83;21189;-71
2021/04/14 01:48:27;;;;;;;15.18;9.50;;;;;;;9.89;73.49;100543.56;1723964;82;21593;-71
2021/04/14 01:50:55;;;;;;;11.85;9.13;;;;;;;9.88;73.47;100546.50;1727697;83;21187;-72
2021/04/14 01:53:24;;;;;;;14.07;9.88;;;;;;;9.87;73.37;100541.66;1718617;82;21256;-72
2021/04/14 01:55:52;;;;;;;13.03;8.75;;;;;;;9.86;73.40;100544.06;1724294;81;21183;-71
2021/04/14 01:58:21;;;;;;;12.53;9.35;;;;;;;9.81;73.41;100542.17;1723931;81;21713;-72
2021/04/14 02:00:58;;;;;;;13.75;9.20;;;;;;;9.68;73.50;100531.91;1721595;81;21194;-72
2021/04/14 02:03:29;;;;;;;13.35;10.13;;;;;;;9.53;73.72;100527.20;1719974;81;21233;-72
2021/04/14 02:05:58;;;;;;;11.80;10.05;;;;;;;9.39;73.99;100528.66;1718173;81;21189;-72
2021/04/14 02:08:26;;;;;;;13.62;9.78;;;;;;;9.32;74.20;100522.72;1719556;83;21388;-72
2021/04/14 02:10:55;;;;;;;13.58;9.58;;;;;;;9.26;74.37;100529.83;1725486;83;21248;-71
2021/04/14 02:13:31;;;;;;;13.83;9.85;;;;;;;9.14;74.48;100527.81;1723524;81;21324;-72
2021/04/14 02:15:58;;;;;;;13.50;9.63;;;;;;;9.01;74.67;100528.18;1652706;85;21188;-72
2021/04/14 02:18:27;;;;;;;12.37;9.93;;;;;;;8.91;74.84;100530.19;1682200;83;21220;-72
2021/04/14 02:20:55;;;;;;;13.70;9.23;;;;;;;8.81;75.00;100524.73;1663530;85;21203;-71
2021/04/14 02:23:31;;;;;;;14.87;10.70;;;;;;;8.74;75.05;100532.89;1683914;85;21616;-70
2021/04/14 02:26:03;;;;;;;14.05;10.32;;;;;;;8.66;75.04;100531.98;1671255;85;21214;-71
2021/04/14 02:28:31;;;;;;;16.10;9.83;;;;;;;8.56;75.15;100533.98;1724629;83;21122;-71
2021/04/14 02:31:00;;;;;;;12.35;8.93;;;;;;;8.43;75.29;100530.32;1723161;83;21185;-71
2021/04/14 02:33:29;;;;;;;15.20;9.83;;;;;;;8.31;75.48;100533.55;1724273;81;21203;-70
2021/04/14 02:35:57;;;;;;;17.12;10.20;;;;;;;8.25;75.65;100530.52;1721284;81;21158;-71
2021/04/14 02:38:26;;;;;;;13.38;9.18;;;;;;;8.19;75.73;100529.13;1718745;81;21459;-71
2021/04/14 02:40:55;;;;;;;17.20;11.03;;;;;;;8.15;75.78;100524.52;1722667;82;21665;-71
2021/04/14 02:43:23;;;;;;;14.80;9.98;;;;;;;8.09;75.85;100525.47;1721740;82;21213;-71
2021/04/14 02:45:51;;;;;;;15.28;9.65;;;;;;;8.06;75.90;100523.30;1722801;81;21363;-71
2021/04/14 02:48:19;;;;;;;12.43;9.48;;;;;;;8.02;75.95;100518.17;1725519;81;21634;-70
2021/04/14 02:50:48;;;;;;;12.75;9.83;;;;;;;7.97;76.00;100517.05;1719359;83;21213;-70
2021/04/14 02:53:17;;;;;;;15.72;10.00;;;;;;;7.94;76.10;100513.55;1717320;82;21622;-71
2021/04/14 02:55:46;;;;;;;14.95;10.20;;;;;;;7.92;76.20;100514.30;1722645;81;21240;-71
2021/04/14 02:58:15;;;;;;;15.90;10.05;;;;;;;7.90;76.32;100512.42;1721704;81;21199;-72
2021/04/14 03:00:44;;;;;;;15.28;11.00;;;;;;;7.90;76.45;100509.75;1723436;81;21189;-72
2021/04/14 03:03:12;;;;;;;14.00;10.03;;;;;;;7.87;76.62;100510.23;1722218;81;21577;-71
2021/04/14 03:05:40;;;;;;;15.80;9.85;;;;;;;7.87;76.80;100520.07;1722275;81;21177;-72
2021/04/14 03:08:08;;;;;;;13.15;10.38;;;;;;;7.84;76.96;100519.22;1717997;83;21147;-72
2021/04/14 03:10:37;;;;;;;14.58;10.05;;;;;;;7.84;77.07;100518.69;1696084;83;21214;-72
2021/04/14 03:13:06;;;;;;;13.95;10.25;;;;;;;7.87;77.16;100514.22;1723141;81;21140;-72
2021/04/14 03:15:38;;;;;;;15.15;9.48;;;;;;;7.94;77.17;100520.72;1716425;81;21221;-71
2021/04/14 03:18:10;;;;;;;14.20;10.70;;;;;;;7.99;77.14;100522.95;1720147;81;21181;-73
2021/04/14 03:20:38;;;;;;;14.60;9.90;;;;;;;8.07;77.15;100528.92;1717294;83;21173;-72
2021/04/14 03:23:10;;;;;;;14.75;10.60;;;;;;;8.12;77.04;100527.66;1723588;82;21337;-72
2021/04/14 03:25:38;;;;;;;14.93;9.68;;;;;;;8.18;76.90;100522.17;1719946;82;21158;-72
2021/04/14 03:28:06;;;;;;;14.38;9.35;;;;;;;8.22;76.70;100517.17;1718324;83;21197;-72
2021/04/14 03:30:34;;;;;;;13.08;9.58;;;;;;;8.27;76.48;100519.13;1723503;81;21122;-72
2021/04/14 03:33:03;;;;;;;13.08;9.65;;;;;;;8.31;76.30;100522.91;1721165;82;21158;-72
2021/04/14 03:35:32;;;;;;;14.33;9.55;;;;;;;8.37;76.11;100527.27;1722971;82;21206;-71
2021/04/14 03:38:01;;;;;;;14.73;9.58;;;;;;;8.43;75.94;100521.80;1708937;83;21149;-73
2021/04/14 03:40:29;;;;;;;14.80;9.83;;;;;;;8.49;75.74;100525.36;1722341;81;21209;-72
2021/04/14 03:42:57;;;;;;;14.78;10.50;;;;;;;8.50;75.67;100530.95;1724498;81;21137;-73
2021/04/14 03:48:13;;;;;;;15.60;10.47;;;;;;;8.60;75.54;100534.30;1832971;77;22627;-73
2021/04/14 03:50:40;;;;;;;13.60;10.00;;;;;;;8.56;75.48;100529.98;1806264;78;21168;-72
2021/04/14 03:56:09;;;;;;;11.23;9.17;;;;;;;8.63;75.41;100524.48;1759446;79;22778;-71
2021/04/14 03:58:55;;;;;;;12.70;8.83;;;;;;;8.57;75.31;100524.93;1729887;82;21216;-73
2021/04/14 04:01:30;;;;;;;11.55;9.00;;;;;;;8.53;75.26;100527.01;1737219;81;21391;-73
2021/04/14 04:03:58;;;;;;;16.02;11.57;;;;;;;8.50;75.16;100530.95;1749532;81;21150;-73
2021/04/14 04:06:26;;;;;;;16.67;11.68;;;;;;;8.48;75.06;100532.23;1744778;81;21158;-72
2021/04/14 04:08:57;;;;;;;13.83;10.80;;;;;;;8.45;74.99;100528.20;1755515;81;21689;-73
2021/04/14 04:11:25;;;;;;;15.75;10.48;;;;;;;8.43;74.97;100527.12;1756187;81;21232;-73
2021/04/14 04:13:57;;;;;;;13.03;9.25;;;;;;;8.47;74.90;100532.77;1749029;81;21219;-72
2021/04/14 04:16:28;;;;;;;15.50;9.50;;;;;;;8.50;74.72;100525.63;1759297;79;21159;-72
2021/04/14 04:18:56;;;;;;;12.45;8.90;;;;;;;8.54;74.61;100528.08;1757684;81;21804;-73
2021/04/14 04:21:24;;;;;;;12.43;8.58;;;;;;;8.57;74.40;100531.59;1750826;81;21211;-72
2021/04/14 04:23:54;;;;;;;12.03;8.75;;;;;;;8.56;74.12;100531.31;1760563;81;21183;-73
2021/04/14 04:26:24;;;;;;;12.35;7.65;;;;;;;8.56;73.96;100537.17;1751559;81;21717;-73
2021/04/14 04:28:52;;;;;;;12.45;8.10;;;;;;;8.56;73.70;100536.64;1761823;81;21199;-73
2021/04/14 04:31:20;;;;;;;10.88;8.15;;;;;;;8.56;73.48;100541.16;1756464;81;21164;-73
2021/04/14 04:33:48;;;;;;;12.90;7.67;;;;;;;8.56;73.21;100541.97;1750398;81;21131;-72
2021/04/14 04:36:16;;;;;;;13.20;7.97;;;;;;;8.56;72.75;100536.64;1761008;79;21135;-73
2021/04/14 04:38:44;;;;;;;11.40;7.70;;;;;;;8.57;72.39;100531.59;1751209;81;21350;-72
2021/04/14 04:41:13;;;;;;;10.72;8.10;;;;;;;8.58;72.10;100531.86;1757005;81;21175;-73
2021/04/14 04:43:42;;;;;;;11.97;8.18;;;;;;;8.62;71.68;100538.33;1749885;81;21148;-75
2021/04/14 04:46:11;;;;;;;13.83;8.68;;;;;;;8.64;71.20;100533.55;1747663;79;21192;-74
2021/04/14 04:48:39;;;;;;;11.57;8.40;;;;;;;8.66;70.91;100527.47;1749878;79;21179;-73
2021/04/14 04:51:07;;;;;;;10.38;7.58;;;;;;;8.72;70.67;100532.84;1751354;79;21231;-72
2021/04/14 04:53:35;;;;;;;11.68;7.95;;;;;;;8.76;70.47;100530.00;1746879;79;21135;-73
2021/04/14 04:56:03;;;;;;;13.70;8.58;;;;;;;8.80;70.26;100529.25;1741084;80;21146;-74
2021/04/14 04:58:32;;;;;;;10.70;7.75;;;;;;;8.85;70.12;100532.50;1752546;79;21151;-74
2021/04/14 05:01:00;;;;;;;11.33;8.20;;;;;;;8.92;69.92;100538.48;1750472;81;21163;-72
2021/04/14 05:03:29;;;;;;;10.45;7.80;;;;;;;8.99;69.59;100540.43;1758346;79;21491;-73
2021/04/14 05:05:58;;;;;;;13.70;8.70;;;;;;;9.04;69.25;100537.81;1753047;79;21176;-74
2021/04/14 05:08:26;;;;;;;11.20;7.92;;;;;;;9.06;68.81;100539.72;1758125;79;21143;-73
2021/04/14 05:10:54;;;;;;;10.55;8.20;;;;;;;9.07;68.63;100546.65;1751577;79;21631;-73
2021/04/14 05:13:23;;;;;;;11.88;8.53;;;;;;;9.11;68.43;100545.63;1751937;81;21231;-73
2021/04/14 05:15:52;;;;;;;11.90;8.23;;;;;;;9.13;68.25;100545.66;1746967;81;21643;-74
2021/04/14 05:18:21;;;;;;;11.18;7.87;;;;;;;9.16;68.16;100543.04;1755239;81;21239;-74
2021/04/14 05:20:50;;;;;;;11.18;8.18;;;;;;;9.20;67.93;100542.02;1758687;81;21195;-73
2021/04/14 05:23:19;;;;;;;12.13;8.13;;;;;;;9.22;67.75;100542.59;1749501;81;21829;-73
2021/04/14 05:25:46;;;;;;;11.50;8.05;;;;;;;9.29;67.65;100544.53;1741111;81;21184;-74
2021/04/14 05:28:17;;;;;;;12.18;8.68;;;;;;;9.31;67.63;100544.56;1748341;79;21378;-73
2021/04/14 05:30:44;;;;;;;12.30;8.33;;;;;;;9.36;67.57;100543.81;1740811;81;21618;-72
2021/04/14 05:33:12;;;;;;;12.88;8.38;;;;;;;9.40;67.32;100541.72;1746918;79;21218;-74
2021/04/14 05:35:41;;;;;;;11.53;8.73;;;;;;;9.45;66.81;100548.98;1748163;81;21194;-73
2021/04/14 05:38:09;;;;;;;12.70;9.08;;;;;;;9.44;66.23;100539.89;1749667;79;21180;-73
2021/04/14 05:40:37;;;;;;;13.72;9.55;;;;;;;9.45;66.08;100548.19;1747568;81;21381;-72
2021/04/14 05:43:21;;;;;;;12.53;9.25;;;;;;;9.50;65.57;100544.23;1745854;81;21246;-73
2021/04/14 05:46:00;;;;;;;10.90;8.07;;;;;;;9.52;65.15;100542.92;1727317;81;21496;-73
2021/04/14 05:48:28;;;;;;;10.93;8.43;;;;;;;9.55;64.45;100542.43;1753779;79;21769;-73
2021/04/14 05:50:59;;;;;;;11.30;8.58;;;;;;;9.55;64.03;100533.09;1753377;79;21232;-73
2021/04/14 05:53:27;;;;;;;14.18;8.95;;;;;;;9.62;63.78;100536.37;1753210;81;21580;-73
2021/04/14 05:55:55;;;;;;;15.30;8.97;;;;;;;9.71;63.69;100539.94;1747863;81;21651;-74
2021/04/14 05:58:23;;;;;;;11.15;8.45;;;;;;;9.81;63.14;100542.17;1747295;79;21898;-73
2021/04/14 06:00:51;;;;;;;12.67;9.70;;;;;;;9.91;62.86;100543.33;1746049;79;21192;-72
2021/04/14 06:03:19;;;;;;;12.17;8.43;;;;;;;9.98;62.28;100543.92;1745958;79;21309;-74
2021/04/14 06:05:47;;;;;;;12.67;8.40;;;;;;;10.04;62.19;100542.38;1750906;79;21303;-74
2021/04/14 06:08:14;;;;;;;15.03;8.90;;;;;;;10.10;61.83;100538.70;1750836;79;21741;-74
2021/04/14 06:10:42;;;;;;;10.97;8.47;;;;;;;10.21;61.90;100537.45;1742885;79;21262;-74
2021/04/14 06:13:10;;;;;;;12.27;9.27;;;;;;;10.32;61.59;100525.81;1753195;81;22025;-74
2021/04/14 06:15:38;;;;;;;13.40;9.17;;;;;;;10.42;60.68;100532.55;1757089;81;21440;-73
2021/04/14 06:18:06;;;;;;;13.70;9.30;;;;;;;10.46;60.47;100532.84;1752062;81;21417;-74
2021/04/14 06:20:35;;;;;;;12.77;9.30;;;;;;;10.52;60.14;100537.97;1751859;79;21496;-73
2021/04/14 06:23:16;;;;;;;13.47;9.07;;;;;;;10.56;59.41;100527.06;1758842;79;21403;-73
2021/04/14 06:28:23;;;;;;;13.93;9.00;;;;;;;10.61;59.08;100531.63;1747844;81;21184;-74
2021/04/14 06:30:51;;;;;;;12.20;9.53;;;;;;;10.73;59.08;100528.77;1748492;81;21386;-75
2021/04/14 06:33:20;;;;;;;12.23;8.97;;;;;;;10.88;59.02;100530.17;1752861;79;21843;-74
2021/04/14 06:35:49;;;;;;;13.03;8.97;;;;;;;11.04;58.71;100531.05;1752389;81;21532;-74
2021/04/14 06:38:21;;;;;;;12.50;9.17;;;;;;;11.21;58.40;100528.98;1755431;81;21436;-73
2021/04/14 06:43:47;;;;;;;15.07;8.87;;;;;;;11.53;57.50;100532.58;1758211;79;21363;-73
2021/04/14 06:46:25;;;;;;;14.87;9.47;;;;;;;11.64;56.58;100528.84;1793873;77;21464;-76
2021/04/14 06:49:26;;;;;;;13.33;9.43;;;;;;;11.78;56.05;100535.83;1767435;79;21474;-74
2021/04/14 06:52:23;;;;;;;11.13;8.93;;;;;;;11.87;55.40;100534.27;1800814;79;21718;-74
2021/04/14 06:55:00;;;;;;;13.77;8.90;;;;;;;11.94;54.87;100534.30;1792473;79;21322;-74
2021/04/14 06:57:33;;;;;;;11.63;8.93;;;;;;;12.00;54.53;100532.95;1796692;77;21490;-74
2021/04/14 07:00:07;;;;;;;14.03;10.10;;;;;;;12.00;53.83;100540.98;1790561;77;21257;-73
2021/04/14 07:02:44;;;;;;;15.17;9.80;;;;;;;11.90;54.13;100537.75;1795352;77;21414;-74
2021/04/14 07:05:22;;;;;;;14.07;10.20;;;;;;;11.88;54.20;100540.71;1753253;80;21276;-75
2021/04/14 07:07:54;;;;;;;15.70;10.67;;;;;;;11.84;54.07;100543.62;1748607;81;21248;-74
2021/04/14 07:10:27;;;;;;;17.93;11.17;;;;;;;11.81;53.94;100543.33;1753789;81;22329;-74
2021/04/14 07:13:03;;;;;;;15.10;11.03;;;;;;;11.83;54.10;100545.21;1757309;79;21488;-74
2021/04/14 07:15:32;;;;;;;15.97;11.30;;;;;;;11.84;54.36;100539.61;1755502;81;21474;-75
2021/04/14 07:18:21;;;;;;;14.80;10.70;;;;;;;11.91;54.29;100546.88;1751551;81;21461;-73
2021/04/14 07:21:12;;;;;;;15.07;11.43;;;;;;;11.98;54.25;100546.61;1719693;81;21295;-74
2021/04/14 07:23:53;;;;;;;11.80;9.23;;;;;;;11.98;54.23;100546.61;1748317;79;22133;-75
2021/04/14 07:26:30;;;;;;;15.17;11.20;;;;;;;12.03;54.16;100545.80;1750053;80;21885;-73
2021/04/14 07:29:20;;;;;;;17.57;11.77;;;;;;;12.02;54.10;100539.64;1753203;81;21358;-74
2021/04/14 07:31:53;;;;;;;14.13;10.77;;;;;;;11.98;54.31;100541.26;1788269;77;22002;-76
2021/04/14 07:34:39;;;;;;;16.07;11.47;;;;;;;12.05;54.40;100545.81;1798166;77;21494;-74
2021/04/14 07:37:27;;;;;;;14.87;11.67;;;;;;;12.13;54.49;100543.92;1802090;77;21449;-75
2021/04/14 07:40:44;;;;;;;17.73;11.80;;;;;;;12.24;54.43;100537.23;1797284;79;21834;-75
2021/04/14 07:43:42;;;;;;;15.87;11.73;;;;;;;12.41;54.27;100546.61;1795507;77;21435;-75
2021/04/14 07:46:10;;;;;;;15.43;11.73;;;;;;;12.60;53.83;100540.16;1800100;77;21441;-74
2021/04/14 07:48:40;;;;;;;16.03;11.10;;;;;;;12.68;53.51;100537.47;1793827;79;21913;-75
2021/04/14 07:51:12;;;;;;;16.83;11.90;;;;;;;12.76;53.45;100538.23;1796500;77;21556;-75
2021/04/14 07:53:42;;;;;;;14.70;11.87;;;;;;;12.82;53.29;100541.17;1800435;79;22019;-74
2021/04/14 07:56:24;;;;;;;14.47;11.03;;;;;;;13.02;53.08;100548.36;1794761;77;21629;-74
2021/04/14 07:59:06;;;;;;;14.67;11.17;;;;;;;13.13;53.04;100544.58;1784706;77;21625;-75
2021/04/14 08:01:37;;;;;;;14.53;11.33;;;;;;;13.13;53.04;100544.58;1792587;77;21685;-75
2021/04/14 08:04:13;;;;;;;16.03;12.07;;;;;;;13.25;52.59;100546.95;1800447;77;22594;-75
2021/04/14 08:06:41;;;;;;;15.03;12.07;;;;;;;13.40;52.44;100545.30;1793917;77;21667;-75
2021/04/14 08:09:14;;;;;;;19.43;11.83;;;;;;;13.58;52.40;100536.06;1788542;77;22814;-76
2021/04/14 08:11:42;;;;;;;12.93;10.10;;;;;;;13.87;50.93;100541.27;1797608;77;21858;-73
2021/04/14 08:14:24;;;;;;;14.50;11.27;;;;;;;13.94;50.24;100537.18;1798845;77;21922;-73
2021/04/14 08:16:54;;;;;;;15.53;12.20;;;;;;;13.94;50.24;100537.18;1791920;79;23021;-75
2021/04/14 08:19:32;;;;;;;14.58;11.73;;;;;;;14.04;50.34;100544.36;1798030;79;21869;-75
2021/04/14 08:22:07;;;;;;;15.30;11.57;;;;;;;14.06;50.10;100534.95;1798586;77;21690;-74
2021/04/14 08:24:43;;;;;;;15.70;11.23;;;;;;;14.07;50.01;100531.72;1806261;77;21866;-75
2021/04/14 08:27:27;;;;;;;13.63;11.83;;;;;;;14.08;49.96;100530.62;1804121;77;22309;-74
2021/04/14 08:30:15;;;;;;;16.13;11.93;;;;;;;14.12;49.62;100529.00;1793311;77;21886;-75
2021/04/14 08:33:02;;;;;;;14.63;10.90;;;;;;;14.14;49.57;100533.53;1800710;77;22200;-74
2021/04/14 08:35:38;;;;;;;13.63;11.47;;;;;;;14.19;49.34;100528.68;1788372;79;21932;-75
2021/04/14 08:38:28;;;;;;;16.77;11.57;;;;;;;14.24;49.75;100524.05;1793431;77;22339;-74
2021/04/14 08:41:01;;;;;;;18.03;12.90;;;;;;;14.37;49.56;100509.70;1798281;77;21227;-76
2021/04/14 08:43:35;;;;;;;16.57;11.17;;;;;;;14.53;49.41;100509.84;1800164;79;21863;-74
2021/04/14 08:46:32;;;;;;;16.70;12.07;;;;;;;14.74;48.51;100505.88;1795238;77;21890;-74
2021/04/14 08:49:22;;;;;;;20.43;12.30;;;;;;;14.81;48.71;100500.67;1804541;79;22329;-74
2021/04/14 08:51:53;;;;;;;18.62;12.23;;;;;;;14.98;48.38;100497.79;1798046;79;22064;-75
2021/04/14 08:54:30;;;;;;;22.67;13.67;;;;;;;15.18;47.94;100488.66;1802870;79;21139;-73
2021/04/14 08:56:57;;;;;;;27.00;12.73;;;;;;;15.29;47.30;100483.14;1764025;79;21386;-74
2021/04/14 08:59:27;;;;;;;24.80;13.57;;;;;;;15.31;46.85;100471.55;1792223;79;21164;-74
2021/04/14 09:01:55;;;;;;;20.43;11.47;;;;;;;15.32;46.06;100474.48;1793717;77;21207;-72
2021/04/14 09:04:24;;;;;;;23.00;11.67;;;;;;;15.34;46.30;100472.32;1797528;79;21171;-72
2021/04/14 09:06:53;;;;;;;19.77;11.50;;;;;;;15.37;46.92;100466.36;1785642;77;21127;-72
2021/04/14 09:09:25;;;;;;;19.07;11.43;;;;;;;15.45;46.34;100464.34;1792974;79;21371;-71
2021/04/14 09:12:06;;;;;;;17.17;10.63;;;;;;;15.51;45.97;100457.80;1803397;77;21194;-72
2021/04/14 09:14:34;;;;;;;16.90;11.40;;;;;;;15.52;45.77;100451.31;1800321;79;21175;-73
2021/04/14 09:17:18;;;;;;;16.53;10.73;;;;;;;15.51;46.08;100451.06;1795032;79;21442;-73
2021/04/14 09:19:50;;;;;;;16.00;10.47;;;;;;;15.62;45.54;100447.11;1763091;79;21555;-74
2021/04/14 09:22:24;;;;;;;17.47;11.13;;;;;;;15.78;45.32;100442.32;1802955;77;21252;-73
2021/04/14 09:25:18;;;;;;;14.53;10.17;;;;;;;15.82;44.95;100439.84;1804444;79;21218;-73
2021/04/14 09:27:51;;;;;;;16.87;9.77;;;;;;;15.76;45.39;100435.62;1799219;79;21131;-74
2021/04/14 09:30:37;;;;;;;16.20;10.03;;;;;;;15.81;45.37;100433.66;1800214;79;21211;-75
2021/04/14 09:33:15;;;;;;;12.20;9.63;;;;;;;15.92;44.98;100424.84;1791828;77;21195;-74
2021/04/14 09:35:56;;;;;;;13.20;9.60;;;;;;;16.08;44.82;100424.84;1792863;77;21666;-73
2021/04/14 09:41:29;;;;;;;12.97;8.17;;;;;;;16.40;43.65;100412.41;1760828;79;23271;-75
2021/04/14 09:44:17;;;;;;;11.10;8.50;;;;;;;16.57;43.89;100413.15;1731572;82;21295;-75
2021/04/14 09:46:57;;;;;;;12.37;8.40;;;;;;;16.83;42.94;100411.55;1719413;82;22674;-73
2021/04/14 09:49:47;;;;;;;12.00;8.97;;;;;;;17.04;42.52;100407.06;1743543;82;21197;-73
2021/04/14 09:52:29;;;;;;;10.73;8.53;;;;;;;17.21;42.66;100400.48;1727491;80;21207;-74
2021/04/14 09:55:08;;;;;;;13.47;8.47;;;;;;;17.41;42.31;100395.16;1727993;82;21184;-72
2021/04/14 09:57:39;;;;;;;11.73;7.70;;;;;;;17.63;41.57;100392.20;1722216;82;21196;-74
2021/04/14 10:00:20;;;;;;;9.17;6.87;;;;;;;17.74;40.62;100394.35;1731209;82;22690;-74
2021/04/14 10:02:49;;;;;;;12.33;8.03;;;;;;;17.83;40.25;100389.02;1731537;81;21553;-75
2021/04/14 10:05:17;;;;;;;10.30;6.47;;;;;;;17.88;40.29;100385.40;1723828;82;21189;-74
2021/04/14 10:07:45;;;;;;;10.13;6.93;;;;;;;17.92;39.75;100379.05;1724480;82;21197;-72
2021/04/14 10:10:22;;;;;;;10.93;6.57;;;;;;;18.00;39.51;100381.58;1730072;82;21116;-75
2021/04/14 10:12:52;;;;;;;9.70;6.20;;;;;;;18.08;38.44;100374.60;1734383;80;22299;-72
2021/04/14 10:15:35;;;;;;;8.30;5.77;;;;;;;18.21;38.32;100364.24;1697066;82;21140;-74
2021/04/14 10:18:05;;;;;;;8.38;6.12;;;;;;;18.34;38.29;100364.68;1703079;83;21213;-76
2021/04/14 10:20:36;;;;;;;9.60;5.90;;;;;;;18.48;37.65;100359.94;1730008;82;21141;-74
2021/04/14 10:23:08;;;;;;;;;;;;;;;18.57;36.45;100357.83;1736529;82;21195;-74
2021/04/14 10:25:38;;;;;;;7.20;5.47;;;;;;;18.59;36.32;100356.94;1728284;81;22315;-74
2021/04/14 10:28:21;;;;;;;7.37;5.50;;;;;;;18.60;36.16;100355.84;1727818;82;21141;-72
2021/04/14 10:31:04;;;;;;;7.97;5.73;;;;;;;18.59;35.57;100354.23;1730327;82;21102;-75
2021/04/14 10:33:32;;;;;;;8.97;5.30;;;;;;;18.57;36.13;100352.42;1733468;82;21764;-73
2021/04/14 10:36:16;;;;;;;7.57;5.57;;;;;;;18.65;36.46;100360.53;1731264;82;21153;-74
2021/04/14 10:38:44;;;;;;;6.90;4.97;;;;;;;18.77;36.15;100355.10;1726285;82;22345;-73
2021/04/14 10:41:23;;;;;;;8.10;5.40;;;;;;;18.84;36.05;100355.42;1724145;82;21160;-72
2021/04/14 10:43:51;;;;;;;8.37;4.90;;;;;;;18.89;36.12;100345.25;1712779;81;21212;-72
2021/04/14 10:46:28;;;;;;;7.80;5.30;;;;;;;18.97;35.99;100343.65;1716579;82;26911;-72
2021/04/14 10:49:05;;;;;;;8.40;5.37;;;;;;;18.98;35.76;100343.31;1717765;82;21184;-73
2021/04/14 10:51:48;;;;;;;7.60;5.30;;;;;;;18.95;35.70;100339.10;1798824;79;22793;-73
2021/04/14 10:54:18;;;;;;;8.97;5.53;;;;;;;18.90;35.64;100344.69;1770753;79;21167;-71
2021/04/14 10:57:03;;;;;;;6.60;4.87;;;;;;;18.92;35.72;100338.37;1765633;80;22319;-71
2021/04/14 10:59:31;;;;;;;8.63;5.27;;;;;;;19.02;35.54;100342.68;1755345;81;21173;-71
2021/04/14 11:02:14;;;;;;;7.93;4.90;;;;;;;19.11;35.37;100338.07;1740885;81;22109;-71
2021/04/14 11:04:42;;;;;;;7.73;5.03;;;;;;;19.19;35.34;100344.84;1728156;81;21179;-70
2021/04/14 11:07:20;;;;;;;6.77;4.53;;;;;;;19.26;35.31;100348.98;1724966;81;21144;-72
2021/04/14 11:09:48;;;;;;;7.33;4.87;;;;;;;19.32;34.66;100332.25;1725060;82;21204;-70
2021/04/14 11:12:20;;;;;;;7.90;5.83;;;;;;;19.40;35.09;100340.91;1727122;81;21212;-72
2021/04/14 11:14:52;;;;;;;7.47;5.33;;;;;;;19.39;34.47;100337.17;1723414;82;21215;-70
2021/04/14 11:17:27;;;;;;;7.40;5.20;;;;;;;19.27;34.71;100340.52;1723098;81;21191;-71
2021/04/14 11:19:59;;;;;;;9.57;5.73;;;;;;;19.25;34.61;100341.42;1695140;83;21686;-70
2021/04/14 11:22:28;;;;;;;6.62;4.65;;;;;;;19.24;33.99;100335.75;1704174;82;21384;-71
2021/04/14 11:24:56;;;;;;;5.67;4.27;;;;;;;19.26;34.29;100333.52;1672095;82;21671;-71
2021/04/14 11:27:30;;;;;;;18.80;8.47;;;;;;;19.33;34.38;100331.13;1701189;83;21216;-69
2021/04/14 11:30:09;;;;;;;13.87;6.80;;;;;;;19.37;35.08;100335.34;1726116;82;21198;-70
2021/04/14 11:32:37;;;;;;;11.43;5.77;;;;;;;19.30;35.27;100330.97;1732307;81;21181;-72
2021/04/14 11:35:10;;;;;;;8.43;4.97;;;;;;;19.35;35.06;100326.19;1724632;82;21424;-71
2021/04/14 11:37:47;;;;;;;6.80;4.70;;;;;;;19.47;34.60;100318.74;1723081;81;21309;-70
2021/04/14 11:40:24;;;;;;;10.03;5.33;;;;;;;19.58;34.51;100316.51;1721048;82;21137;-70
2021/04/14 11:43:03;;;;;;;7.20;4.93;;;;;;;19.60;34.36;100319.11;1722087;82;21264;-73
2021/04/14 11:45:40;;;;;;;10.53;5.27;;;;;;;19.63;34.02;100313.61;1726495;81;21196;-72
2021/04/14 11:48:19;;;;;;;10.83;5.93;;;;;;;19.70;33.28;100305.80;1722117;81;21398;-71
2021/04/14 11:50:47;;;;;;;7.50;5.13;;;;;;;19.75;34.07;100306.20;1718256;82;21212;-70
2021/04/14 11:53:30;;;;;;;9.17;5.50;;;;;;;19.79;33.75;100298.44;1708754;83;21220;-71
2021/04/14 11:58:47;;;;;;;6.87;5.40;;;;;;;19.66;34.05;100292.67;1796609;77;23072;-71
2021/04/14 12:01:30;;;;;;;9.00;5.43;;;;;;;19.64;33.60;100293.55;1758456;78;21727;-70